createdAt,value
2019-03-13T00:03:09.823Z,80
2019-03-13T00:08:09.962Z,80.5
2019-03-13T00:13:09.865Z,79.9
2019-03-13T00:18:09.859Z,80.4
2019-03-13T00:23:09.854Z,80.4
2019-03-13T00:28:10.018Z,80.4
2019-03-13T00:33:10.054Z,80.9
2019-03-13T00:38:09.912Z,80.5
2019-03-13T00:43:09.993Z,81.2
2019-03-13T00:48:10.040Z,81.4
2019-03-13T00:53:09.965Z,81.2
2019-03-13T00:58:09.959Z,80.9
2019-03-13T01:03:10.054Z,81.2
2019-03-13T01:08:09.890Z,82.1
2019-03-13T01:13:09.860Z,82.4
2019-03-13T01:18:10.031Z,81.2
2019-03-13T01:23:09.855Z,81.7
2019-03-13T01:28:09.999Z,82.1
2019-03-13T01:33:09.858Z,83.6
2019-03-13T01:38:10.090Z,83.4
2019-03-13T01:43:09.997Z,82.4
2019-03-13T01:48:10.045Z,81.6
2019-03-13T01:53:10.104Z,81.7
2019-03-13T01:58:09.867Z,81.9
2019-03-13T02:03:09.877Z,80.6
2019-03-13T02:08:10.086Z,80.6
2019-03-13T02:13:09.921Z,82.8
2019-03-13T02:18:10.103Z,82.5
2019-03-13T02:23:10.090Z,82.7
2019-03-13T02:28:09.887Z,82.1
2019-03-13T02:33:10.042Z,82.7
2019-03-13T02:38:10.092Z,82.2
2019-03-13T02:43:10.116Z,83.1
2019-03-13T02:48:09.882Z,83.1
2019-03-13T02:53:10.083Z,83
2019-03-13T02:58:10.132Z,82.9
2019-03-13T03:03:09.896Z,82.9
2019-03-13T03:08:09.902Z,82.2
2019-03-13T03:13:09.909Z,83.5
2019-03-13T03:18:10.037Z,81.3
2019-03-13T03:23:10.087Z,79.9
2019-03-13T03:28:10.063Z,78.7
2019-03-13T03:33:10.057Z,79
2019-03-13T03:38:10.019Z,78.9
2019-03-13T03:43:10.227Z,78.3
2019-03-13T03:48:11.078Z,78.5
2019-03-13T03:53:09.941Z,79.7
2019-03-13T03:58:10.139Z,78.5
2019-03-13T04:03:10.052Z,78.7
2019-03-13T04:08:09.935Z,78.8
2019-03-13T04:13:10.122Z,78.7
2019-03-13T04:18:10.035Z,79
2019-03-13T04:23:10.084Z,79.2
2019-03-13T04:28:09.963Z,78.3
2019-03-13T04:33:10.167Z,78
2019-03-13T04:38:09.953Z,78.6
2019-03-13T04:43:09.936Z,78.8
2019-03-13T04:48:10.148Z,79.3
2019-03-13T04:53:10.080Z,79.1
2019-03-13T04:58:10.120Z,79.3
2019-03-13T05:03:10.148Z,78.5
2019-03-13T05:08:09.987Z,79.3
2019-03-13T05:13:10.582Z,78.4
2019-03-13T05:18:10.140Z,78
2019-03-13T05:23:09.961Z,78.3
2019-03-13T05:28:09.981Z,78.8
2019-03-13T05:33:10.142Z,79.7
2019-03-13T05:38:10.190Z,79.6
2019-03-13T05:43:10.116Z,80.2
2019-03-13T05:48:10.160Z,80.9
2019-03-13T05:53:10.003Z,78.3
2019-03-13T05:58:10.001Z,76.6
2019-03-13T06:03:10.151Z,77.6
2019-03-13T06:08:09.994Z,77.2
2019-03-13T06:13:09.995Z,77.1
2019-03-13T06:18:10.454Z,77
2019-03-13T06:23:10.194Z,76.2
2019-03-13T06:28:09.985Z,76
2019-03-13T06:33:10.173Z,76
2019-03-13T06:38:10.183Z,74.4
2019-03-13T06:43:10.233Z,73.9
2019-03-13T06:48:10.148Z,73.6
2019-03-13T06:53:10.207Z,74.1
2019-03-13T06:58:10.061Z,74.5
2019-03-13T07:03:10.001Z,74.9
2019-03-13T07:08:10.182Z,73.8
2019-03-13T07:13:10.187Z,73.6
2019-03-13T07:18:10.300Z,73.1
2019-03-13T07:23:10.194Z,72.3
2019-03-13T07:28:10.240Z,72.5
2019-03-13T07:33:10.237Z,74.2
2019-03-13T07:38:10.193Z,72.4
2019-03-13T07:43:10.434Z,72.3
2019-03-13T07:48:10.270Z,71.9
2019-03-13T07:53:10.263Z,72.2
2019-03-13T07:58:10.216Z,72.8
2019-03-13T08:03:10.063Z,71.6
2019-03-13T08:08:10.215Z,72
2019-03-13T08:13:10.227Z,72.1
2019-03-13T08:18:10.292Z,73.3
2019-03-13T08:23:10.050Z,74
2019-03-13T08:28:10.219Z,73.4
2019-03-13T08:33:10.191Z,73.7
2019-03-13T08:38:10.075Z,73.7
2019-03-13T08:43:10.246Z,73.2
2019-03-13T08:48:10.260Z,71.3
2019-03-13T08:53:10.312Z,73.1
2019-03-13T08:58:10.109Z,72.6
2019-03-13T09:03:10.089Z,71.8
2019-03-13T09:08:10.323Z,72
2019-03-13T09:13:10.098Z,71.8
2019-03-13T09:18:10.256Z,72.6
2019-03-13T09:23:10.222Z,72.2
2019-03-13T09:28:10.093Z,71.7
2019-03-13T09:33:10.263Z,72.2
2019-03-13T09:38:10.317Z,71.2
2019-03-13T09:43:10.358Z,71.1
2019-03-13T09:48:10.295Z,70
2019-03-13T09:53:10.299Z,71.6
2019-03-13T09:58:10.327Z,69.8
2019-03-13T10:03:10.398Z,70.7
2019-03-13T10:08:10.135Z,70.1
2019-03-13T10:13:10.136Z,70.3
2019-03-13T10:18:10.291Z,70.4
2019-03-13T10:23:10.141Z,73.1
2019-03-13T10:28:10.102Z,72.2
2019-03-13T10:33:10.382Z,73.2
2019-03-13T10:38:14.569Z,70.5
2019-03-13T10:43:10.347Z,70.8
2019-03-13T10:48:10.272Z,68.1
2019-03-13T10:53:10.253Z,69.2
2019-03-13T10:58:10.343Z,69.2
2019-03-13T11:03:10.385Z,69.5
2019-03-13T11:08:10.304Z,66.5
2019-03-13T11:13:10.356Z,64.3
2019-03-13T11:18:10.261Z,64.4
2019-03-13T11:23:10.415Z,62.4
2019-03-13T11:28:10.293Z,61.3
2019-03-13T11:33:10.387Z,61.2
2019-03-13T11:38:10.420Z,59.3
2019-03-13T11:43:10.353Z,58.5
2019-03-13T11:48:10.386Z,58.9
2019-03-13T11:53:10.432Z,57.9
2019-03-13T11:58:10.338Z,58.1
2019-03-13T12:03:10.569Z,57.1
2019-03-13T12:08:10.320Z,59.3
2019-03-13T12:13:10.934Z,57.3
2019-03-13T12:18:10.401Z,55.7
2019-03-13T12:23:10.409Z,56
2019-03-13T12:28:10.330Z,54.4
2019-03-13T12:33:10.374Z,54.5
2019-03-13T12:38:10.361Z,53.3
2019-03-13T12:43:10.339Z,54.1
2019-03-13T12:48:17.241Z,54
2019-03-13T12:53:10.226Z,52.5
2019-03-13T12:58:10.208Z,53.3
2019-03-13T13:03:10.442Z,52.2
2019-03-13T13:08:10.415Z,53.2
2019-03-13T13:13:10.201Z,55
2019-03-13T13:18:10.379Z,52.8
2019-03-13T13:23:10.406Z,52.3
2019-03-13T13:28:10.462Z,50.4
2019-03-13T13:33:10.374Z,50.5
2019-03-13T13:38:10.701Z,50
2019-03-13T13:43:10.456Z,50.1
2019-03-13T13:48:10.347Z,48.5
2019-03-13T13:53:10.404Z,48.5
2019-03-13T13:58:10.441Z,48.5
2019-03-13T14:03:10.236Z,48.9
2019-03-13T14:08:10.254Z,50.6
2019-03-13T14:13:10.250Z,49.3
2019-03-13T14:18:10.230Z,49.9
2019-03-13T14:23:10.408Z,48.9
2019-03-13T14:28:10.538Z,49
2019-03-13T14:33:10.366Z,49.7
2019-03-13T14:38:10.418Z,50.5
2019-03-13T14:43:10.225Z,50.8
2019-03-13T14:48:10.252Z,51.9
2019-03-13T14:53:10.410Z,51
2019-03-13T14:58:10.454Z,52.5
2019-03-13T15:03:10.303Z,54.3
2019-03-13T15:08:11.449Z,55.1
2019-03-13T15:13:10.475Z,57.2
2019-03-13T15:18:10.510Z,58.1
2019-03-13T15:23:10.273Z,58.6
2019-03-13T15:28:10.442Z,60.2
2019-03-13T15:33:10.423Z,60.2
2019-03-13T15:38:10.424Z,60.5
2019-03-13T15:43:10.478Z,60.1
2019-03-13T15:48:10.502Z,60.6
2019-03-13T15:53:10.517Z,60.7
2019-03-13T15:58:10.440Z,60.3
2019-03-13T16:03:10.427Z,60.4
2019-03-13T16:08:10.536Z,61
2019-03-13T16:13:10.310Z,62.1
2019-03-13T16:18:10.479Z,61.3
2019-03-13T16:23:10.521Z,61.8
2019-03-13T16:28:10.760Z,61.9
2019-03-13T16:33:10.515Z,61.3
2019-03-13T16:38:10.541Z,63.1
2019-03-13T16:43:10.576Z,63
2019-03-13T16:48:10.494Z,61.8
2019-03-13T16:53:10.354Z,61.7
2019-03-13T16:58:10.353Z,57.3
2019-03-13T17:03:10.501Z,56.8
2019-03-13T17:08:10.404Z,57.3
2019-03-13T17:13:10.350Z,58.2
2019-03-13T17:18:10.373Z,57.4
2019-03-13T17:23:10.378Z,57
2019-03-13T17:28:10.364Z,59.5
2019-03-13T17:33:10.402Z,60.6
2019-03-13T17:38:10.600Z,60.8
2019-03-13T17:43:10.378Z,62
2019-03-13T17:48:11.291Z,61.3
2019-03-13T17:53:10.381Z,62.7
2019-03-13T17:58:10.388Z,63.5
2019-03-13T18:03:10.396Z,63.9
2019-03-13T18:08:10.365Z,64.7
2019-03-13T18:13:10.386Z,65
2019-03-13T18:18:10.396Z,65.1
2019-03-13T18:23:10.379Z,66.5
2019-03-13T18:28:10.452Z,68.1
2019-03-13T18:33:10.409Z,68
2019-03-13T18:38:10.582Z,68.1
2019-03-13T18:43:10.375Z,68.7
2019-03-13T18:48:13.299Z,68.6
2019-03-13T18:53:10.786Z,68.7
2019-03-13T18:58:10.414Z,69
2019-03-13T19:03:10.701Z,70
2019-03-13T19:08:10.433Z,70
2019-03-13T19:13:10.417Z,70.1
2019-03-13T19:18:10.410Z,71.4
2019-03-13T19:23:10.494Z,70.1
2019-03-13T19:28:10.394Z,68.3
2019-03-13T19:33:11.253Z,66.3
2019-03-13T19:38:10.625Z,67.5
2019-03-13T19:43:10.890Z,66.4
2019-03-13T19:48:10.737Z,65.2
2019-03-13T19:53:10.722Z,66
2019-03-13T19:58:11.955Z,65.2
2019-03-13T20:03:10.501Z,63.6
2019-03-13T20:08:14.241Z,63.3
2019-03-13T20:13:11.628Z,63.1
2019-03-13T20:18:19.762Z,63.4
2019-03-13T20:23:10.951Z,63.1
2019-03-13T20:28:10.703Z,63.2
2019-03-13T20:33:15.323Z,61.9
2019-03-13T20:38:11.623Z,61.5
2019-03-13T20:43:10.580Z,60.3
2019-03-13T20:48:10.729Z,60.8
2019-03-13T20:53:10.778Z,60.1
2019-03-13T20:58:11.562Z,60.8
2019-03-13T21:03:15.031Z,59.8
2019-03-13T21:08:10.555Z,58.5
2019-03-13T21:13:10.770Z,59.4
2019-03-13T21:18:10.651Z,58.2
2019-03-13T21:23:11.099Z,58.5
2019-03-13T21:28:10.778Z,59
2019-03-13T21:33:10.686Z,58.1
2019-03-13T21:38:13.399Z,58.2
2019-03-13T21:43:10.772Z,57.4
2019-03-13T21:48:11.713Z,58
2019-03-13T21:53:12.247Z,57.4
2019-03-13T21:58:10.539Z,57.9
2019-03-13T22:03:10.533Z,56.4
2019-03-13T22:08:10.517Z,56.6
2019-03-13T22:13:10.513Z,53.5
2019-03-13T22:18:10.493Z,54.1
2019-03-13T22:23:10.529Z,53.8
2019-03-13T22:28:10.496Z,55
2019-03-13T22:33:10.495Z,54.8
2019-03-13T22:38:10.501Z,55.1
2019-03-13T22:43:10.534Z,55.5
2019-03-13T22:48:10.737Z,55
2019-03-13T22:53:10.523Z,56.1
2019-03-13T22:58:10.690Z,65.5
2019-03-13T23:03:10.745Z,68.5
2019-03-13T23:08:10.652Z,70.3
2019-03-13T23:13:10.695Z,69.9
2019-03-13T23:18:10.739Z,69
2019-03-13T23:23:10.655Z,68.7
2019-03-13T23:28:10.720Z,69.2
2019-03-13T23:33:10.731Z,69.5
2019-03-13T23:38:10.651Z,69
2019-03-13T23:43:10.557Z,68.6
2019-03-13T23:48:10.642Z,69.4
2019-03-13T23:53:10.656Z,68.8
2019-03-13T23:58:11.805Z,69.6
